Time;durP1;ratioP1;P1;durP2;ratioP2;P2;SDS_P1;SDS_P2;PMS_P1;PMS_P2;Temp;Humidity;BMP_temperature;BMP_pressure;BME280_temperature;BME280_humidity;BME280_pressure;Samples;Min_cycle;Max_cycle;Signal;HPM_P1;HPM_P2
2021/01/15 00:01:38;;;;;;;6.25;5.10;;;1.30;1.00;;;;;;4900813;29;20021;-73
2021/01/15 00:04:04;;;;;;;7.68;6.00;;;1.20;1.00;;;;;;4910472;29;20060;-71
2021/01/15 00:06:30;;;;;;;10.43;6.60;;;1.20;1.00;;;;;;4914498;29;20048;-71
2021/01/15 00:08:56;;;;;;;7.35;5.30;;;1.20;1.00;;;;;;4914134;29;20548;-72
2021/01/15 00:11:27;;;;;;;8.90;5.10;;;1.20;1.00;;;;;;4887870;29;20052;-72
2021/01/15 00:13:54;;;;;;;9.05;5.57;;;1.20;1.00;;;;;;4900492;29;20031;-71
2021/01/15 00:16:24;;;;;;;8.60;4.80;;;1.20;1.00;;;;;;4904852;29;20036;-73
2021/01/15 00:18:52;;;;;;;6.72;4.97;;;1.10;1.00;;;;;;4906365;29;20025;-70
2021/01/15 00:21:22;;;;;;;6.93;4.90;;;1.20;1.00;;;;;;4903221;29;20056;-73
2021/01/15 00:23:48;;;;;;;6.88;4.65;;;1.10;1.00;;;;;;4905827;29;20035;-72
2021/01/15 00:26:18;;;;;;;5.57;4.60;;;1.10;1.00;;;;;;4904140;29;20033;-71
2021/01/15 00:28:44;;;;;;;7.67;4.30;;;1.10;1.00;;;;;;4881469;29;20370;-71
2021/01/15 00:31:10;;;;;;;5.93;4.72;;;1.00;1.00;;;;;;4905969;29;20273;-72
2021/01/15 00:33:36;;;;;;;5.40;3.97;;;1.00;1.00;;;;;;4889476;29;20074;-73
2021/01/15 00:36:02;;;;;;;5.68;4.28;;;1.00;1.00;;;;;;4905153;29;20032;-72
2021/01/15 00:38:28;;;;;;;6.35;4.50;;;1.00;1.00;;;;;;4878903;29;20040;-72
2021/01/15 00:41:07;;;;;;;8.20;4.15;;;1.00;99.90;;;;;;4884846;29;20025;-72
2021/01/15 00:43:34;;;;;;;8.45;4.13;;;1.00;1.00;;;;;;4916692;29;20041;-72
2021/01/15 00:46:00;;;;;;;9.77;4.63;;;1.10;99.90;;;;;;4888207;29;20143;-71
2021/01/15 00:48:26;;;;;;;5.63;3.50;;;1.00;99.90;;;;;;4888858;29;20037;-72
2021/01/15 00:50:52;;;;;;;4.72;4.22;;;1.00;99.90;;;;;;4900622;29;20025;-71
2021/01/15 00:53:18;;;;;;;4.78;4.10;;;1.00;1.00;;;;;;4888703;29;20025;-72
2021/01/15 00:55:43;;;;;;;8.70;4.50;;;0.90;99.90;;;;;;4904299;29;20028;-71
2021/01/15 00:58:15;;;;;;;4.00;3.15;;;0.90;1.00;;;;;;4902444;29;20047;-72
2021/01/15 01:00:41;;;;;;;5.38;3.50;;;0.90;99.90;;;;;;4878938;29;20084;-71
2021/01/15 01:03:07;;;;;;;7.22;4.15;;;1.00;99.90;;;;;;4896608;29;20493;-73
2021/01/15 01:05:34;;;;;;;5.80;3.78;;;1.00;99.90;;;;;;4905314;29;20133;-72
2021/01/15 01:08:00;;;;;;;5.95;3.88;;;1.00;99.90;;;;;;4908750;29;20055;-73
2021/01/15 01:10:26;;;;;;;5.75;3.80;;;1.00;99.90;;;;;;4903989;29;20041;-72
2021/01/15 01:12:51;;;;;;;6.10;3.40;;;1.00;99.90;;;;;;4891241;29;20040;-72
2021/01/15 01:15:17;;;;;;;5.07;3.45;;;1.00;99.90;;;;;;4904213;29;20024;-70
2021/01/15 01:17:43;;;;;;;5.82;3.20;;;1.00;99.90;;;;;;4904852;29;20051;-71
2021/01/15 01:20:10;;;;;;;4.45;3.15;;;0.90;99.90;;;;;;4912726;29;20028;-71
2021/01/15 01:22:36;;;;;;;3.97;3.22;;;0.90;99.90;;;;;;4906482;29;20274;-70
2021/01/15 01:25:03;;;;;;;8.90;3.53;;;0.90;99.90;;;;;;4909134;29;20433;-72
2021/01/15 01:27:29;;;;;;;3.58;2.90;;;0.90;99.90;;;;;;4905141;29;20572;-71
2021/01/15 01:29:54;;;;;;;6.43;3.25;;;0.90;99.90;;;;;;4905039;29;20029;-72
2021/01/15 01:32:20;;;;;;;7.20;3.03;;;0.90;99.90;;;;;;4901633;29;20398;-72
2021/01/15 01:34:45;;;;;;;5.45;3.33;;;0.90;99.90;;;;;;4907553;29;20032;-73
2021/01/15 01:37:11;;;;;;;4.95;2.97;;;0.90;99.90;;;;;;4895847;29;20029;-71
2021/01/15 01:39:37;;;;;;;4.00;2.75;;;0.90;99.90;;;;;;4905643;29;20072;-72
2021/01/15 01:42:02;;;;;;;5.80;3.00;;;0.80;99.90;;;;;;4919635;29;20577;-71
2021/01/15 01:44:28;;;;;;;3.47;2.92;;;0.80;99.90;;;;;;4916471;29;20071;-71
2021/01/15 01:46:54;;;;;;;3.95;3.13;;;0.90;99.90;;;;;;4916799;29;20051;-71
2021/01/15 01:49:20;;;;;;;3.35;3.05;;;0.80;99.90;;;;;;4911797;29;20033;-70
2021/01/15 01:51:49;;;;;;;6.22;3.22;;;0.80;99.90;;;;;;4920551;29;20023;-71
2021/01/15 01:54:15;;;;;;;6.80;2.92;;;0.80;99.90;;;;;;4879690;29;20052;-71
2021/01/15 01:56:41;;;;;;;8.27;3.35;;;0.70;99.90;;;;;;4898756;29;20024;-71
2021/01/15 01:59:08;;;;;;;4.40;3.13;;;0.80;99.90;;;;;;4884089;29;20064;-72
2021/01/15 02:01:33;;;;;;;3.72;2.95;;;0.80;99.90;;;;;;4906685;29;20036;-70
2021/01/15 02:04:03;;;;;;;3.03;2.65;;;0.80;99.90;;;;;;4906505;29;20533;-71
2021/01/15 02:06:31;;;;;;;3.20;2.85;;;0.80;99.90;;;;;;4893517;29;20504;-72
2021/01/15 02:08:57;;;;;;;5.10;3.45;;;0.70;99.90;;;;;;4908759;29;20036;-72
2021/01/15 02:11:29;;;;;;;3.20;2.85;;;0.70;99.90;;;;;;4918980;29;20037;-71
2021/01/15 02:14:05;;;;;;;3.58;2.88;;;0.70;99.90;;;;;;4918359;29;20088;-71
2021/01/15 02:16:32;;;;;;;6.60;3.67;;;0.80;99.90;;;;;;4927274;29;20031;-71
2021/01/15 02:19:21;;;;;;;4.15;3.55;;;0.80;99.90;;;;;;4888029;29;20103;-71
2021/01/15 02:21:46;;;;;;;4.45;2.70;;;0.70;99.90;;;;;;4882343;29;20029;-73
2021/01/15 02:24:50;;;;;;;4.32;2.90;;;0.70;99.90;;;;;;4894260;29;20043;-71
2021/01/15 02:27:53;;;;;;;4.43;4.03;;;0.70;99.90;;;;;;4895718;29;20222;-71
2021/01/15 02:31:03;;;;;;;5.72;3.50;;;0.70;99.90;;;;;;4901735;29;20545;-71
2021/01/15 02:33:45;;;;;;;3.67;2.47;;;0.70;99.90;;;;;;4893562;29;20135;-71
2021/01/15 02:36:29;;;;;;;4.55;2.88;;;0.70;99.90;;;;;;4897664;29;20496;-71
2021/01/15 02:39:02;;;;;;;4.97;3.28;;;0.70;99.90;;;;;;4897696;29;20509;-71
2021/01/15 02:41:29;;;;;;;3.40;2.60;;;0.70;99.90;;;;;;4919986;29;20088;-71
2021/01/15 02:43:59;;;;;;;3.65;2.63;;;0.70;99.90;;;;;;4912545;29;20029;-71
2021/01/15 02:46:47;;;;;;;5.05;2.97;;;0.60;99.90;;;;;;4892869;29;20091;-71
2021/01/15 02:49:14;;;;;;;3.08;2.47;;;0.60;99.90;;;;;;4909448;29;20048;-71
2021/01/15 02:51:40;;;;;;;5.43;2.80;;;0.60;99.90;;;;;;4899791;29;20100;-70
2021/01/15 02:54:07;;;;;;;4.88;2.80;;;0.60;99.90;;;;;;4903102;29;20039;-71
2021/01/15 02:56:33;;;;;;;5.25;3.53;;;0.60;99.90;;;;;;4899376;29;20120;-72
2021/01/15 02:58:59;;;;;;;4.47;2.75;;;0.50;99.90;;;;;;4898969;29;20021;-72
2021/01/15 03:01:27;;;;;;;4.95;2.38;;;0.60;99.90;;;;;;4904405;29;20024;-72
2021/01/15 03:04:10;;;;;;;4.05;2.78;;;0.60;99.90;;;;;;4903836;29;20063;-72
2021/01/15 03:06:42;;;;;;;3.80;3.00;;;0.60;99.90;;;;;;4905629;29;20523;-71
2021/01/15 03:09:09;;;;;;;4.60;3.88;;;0.50;99.90;;;;;;4896064;29;20111;-71
2021/01/15 03:11:36;;;;;;;3.95;3.05;;;0.50;99.90;;;;;;4912814;29;20025;-71
2021/01/15 03:14:02;;;;;;;3.30;3.00;;;0.50;99.90;;;;;;4901923;29;20055;-71
2021/01/15 03:16:29;;;;;;;3.13;2.63;;;0.40;99.90;;;;;;4906150;29;20035;-71
2021/01/15 03:18:59;;;;;;;4.80;3.20;;;0.40;99.90;;;;;;4895309;29;20049;-71
2021/01/15 03:21:29;;;;;;;4.40;3.17;;;0.40;99.90;;;;;;4907043;29;20478;-71
2021/01/15 03:24:02;;;;;;;5.22;3.53;;;0.40;99.90;;;;;;4903623;29;20032;-71
2021/01/15 03:26:28;;;;;;;4.63;4.20;;;0.40;99.90;;;;;;4884686;29;20475;-72
2021/01/15 03:28:54;;;;;;;5.80;3.30;;;0.40;99.90;;;;;;4903923;29;20027;-72
2021/01/15 03:31:19;;;;;;;4.78;3.10;;;0.40;99.90;;;;;;4904691;29;20084;-76
2021/01/15 03:33:45;;;;;;;4.55;3.03;;;0.40;99.90;;;;;;4903565;29;20064;-72
2021/01/15 03:36:11;;;;;;;7.60;3.92;;;0.30;99.90;;;;;;4913408;29;20080;-72
2021/01/15 03:38:36;;;;;;;3.78;3.40;;;0.30;99.90;;;;;;4878291;29;20549;-71
2021/01/15 03:41:02;;;;;;;6.65;2.75;;;0.30;99.90;;;;;;4913252;29;20036;-72
2021/01/15 03:43:28;;;;;;;4.28;3.42;;;0.30;99.90;;;;;;4896371;29;20043;-71
2021/01/15 03:45:55;;;;;;;10.18;3.60;;;0.30;99.90;;;;;;4901552;29;20097;-72
2021/01/15 03:48:21;;;;;;;6.00;3.88;;;0.30;99.90;;;;;;4898727;29;20075;-72
2021/01/15 03:50:48;;;;;;;3.50;2.78;;;0.30;99.90;;;;;;4906914;29;20399;-71
2021/01/15 03:53:14;;;;;;;8.05;3.35;;;0.30;99.90;;;;;;4902429;29;20052;-71
2021/01/15 03:55:40;;;;;;;3.38;2.97;;;0.20;99.90;;;;;;4905287;29;20032;-71
2021/01/15 03:58:06;;;;;;;5.30;3.63;;;0.20;99.90;;;;;;4893414;29;20064;-71
2021/01/15 04:00:31;;;;;;;4.15;3.75;;;0.20;99.90;;;;;;4913968;29;20032;-70
2021/01/15 04:02:57;;;;;;;4.65;4.07;;;0.30;99.90;;;;;;4905643;29;20453;-71
2021/01/15 04:05:23;;;;;;;4.88;3.78;;;0.20;99.90;;;;;;4915549;29;20034;-71
2021/01/15 04:07:48;;;;;;;10.00;4.30;;;0.10;99.90;;;;;;4907963;29;20032;-71
2021/01/15 04:10:18;;;;;;;4.38;3.22;;;0.10;99.90;;;;;;4887416;29;20499;-71
2021/01/15 04:12:45;;;;;;;4.90;2.90;;;0.10;99.90;;;;;;4900010;29;20027;-70
2021/01/15 04:15:12;;;;;;;5.40;3.63;;;0.10;99.90;;;;;;4905498;29;20459;-71
2021/01/15 04:17:39;;;;;;;6.63;3.65;;;0.10;99.90;;;;;;4904650;29;20076;-71
2021/01/15 04:20:06;;;;;;;4.65;3.30;;;0.00;99.90;;;;;;4902033;29;20056;-71
2021/01/15 04:22:34;;;;;;;4.38;3.80;;;-0.10;99.90;;;;;;4906385;29;20197;-71
2021/01/15 04:25:00;;;;;;;4.88;3.78;;;-0.10;99.90;;;;;;4900597;29;20031;-72
2021/01/15 04:27:32;;;;;;;5.95;4.32;;;-0.10;99.90;;;;;;4890687;29;20033;-71
2021/01/15 04:30:01;;;;;;;5.28;4.00;;;-0.10;99.90;;;;;;4914333;29;20031;-71
2021/01/15 04:32:27;;;;;;;6.03;3.70;;;-0.10;99.90;;;;;;4899660;29;20040;-70
2021/01/15 04:34:53;;;;;;;5.78;3.55;;;-0.10;99.90;;;;;;4911428;29;20036;-71
2021/01/15 04:37:19;;;;;;;5.35;3.90;;;-0.20;99.90;;;;;;4912018;29;20164;-71
2021/01/15 04:39:45;;;;;;;5.97;5.25;;;-0.10;99.90;;;;;;4899458;29;20028;-71
2021/01/15 04:42:14;;;;;;;7.00;4.05;;;-0.10;99.90;;;;;;4921798;29;20028;-72
2021/01/15 04:44:40;;;;;;;4.32;3.92;;;-0.20;99.90;;;;;;4912410;29;20032;-71
2021/01/15 04:47:07;;;;;;;5.47;4.03;;;-0.30;1.00;;;;;;4904863;29;20090;-72
2021/01/15 04:49:35;;;;;;;8.07;4.15;;;-0.60;1.00;;;;;;4903834;29;20032;-71
2021/01/15 04:52:01;;;;;;;5.00;4.32;;;-0.60;1.00;;;;;;4905194;29;20103;-72
2021/01/15 04:54:37;;;;;;;5.30;4.22;;;-0.70;1.00;;;;;;4905848;29;20512;-72
2021/01/15 04:57:07;;;;;;;6.10;4.07;;;-0.90;1.00;;;;;;4889041;29;20040;-71
2021/01/15 04:59:39;;;;;;;7.70;4.30;;;-0.90;1.00;;;;;;4890817;29;20033;-73
2021/01/15 05:02:08;;;;;;;6.25;3.80;;;-1.00;1.00;;;;;;4908971;29;20029;-71
2021/01/15 05:04:35;;;;;;;5.53;4.22;;;-1.00;3.20;;;;;;4883952;29;20111;-72
2021/01/15 05:07:06;;;;;;;5.82;4.85;;;-1.00;12.00;;;;;;4905649;29;20021;-72
2021/01/15 05:09:43;;;;;;;7.18;5.18;;;-1.10;16.80;;;;;;4902249;29;20039;-71
2021/01/15 05:12:20;;;;;;;7.18;4.65;;;-1.10;27.00;;;;;;4864729;29;20036;-71
2021/01/15 05:14:47;;;;;;;8.32;4.32;;;-0.90;6.00;;;;;;4891445;29;20092;-71
2021/01/15 05:17:13;;;;;;;6.38;4.60;;;-0.80;1.00;;;;;;4900546;29;20112;-72
2021/01/15 05:19:41;;;;;;;5.93;4.53;;;-0.90;1.00;;;;;;4910626;29;20047;-70
2021/01/15 05:22:08;;;;;;;4.88;4.38;;;-1.00;1.00;;;;;;4928724;29;20021;-71
2021/01/15 05:24:34;;;;;;;6.05;4.97;;;-1.00;1.00;;;;;;4930393;29;20024;-71
2021/01/15 05:30:15;;;;;;;7.13;5.50;;;-1.10;1.00;;;;;;4888335;29;20088;-73
2021/01/15 05:32:41;;;;;;;5.40;4.63;;;-1.00;1.00;;;;;;4897015;29;20393;-71
2021/01/15 05:35:08;;;;;;;6.45;5.00;;;-1.00;1.00;;;;;;4906271;29;20168;-71
2021/01/15 05:37:34;;;;;;;6.22;4.43;;;-0.90;1.00;;;;;;4898402;29;20064;-73
2021/01/15 05:39:59;;;;;;;5.57;4.90;;;-1.10;1.00;;;;;;4912136;29;20273;-71
2021/01/15 05:42:25;;;;;;;7.53;4.85;;;-1.00;1.00;;;;;;4890369;29;20033;-72
2021/01/15 05:44:51;;;;;;;6.57;5.05;;;-1.10;1.00;;;;;;4908878;29;20067;-70
2021/01/15 05:47:16;;;;;;;5.32;4.32;;;-1.20;1.00;;;;;;4910488;29;20104;-70
2021/01/15 05:49:57;;;;;;;6.28;4.78;;;-1.10;1.00;;;;;;4907566;29;20092;-71
2021/01/15 05:52:23;;;;;;;7.55;3.72;;;-1.10;1.00;;;;;;4899378;29;20052;-73
2021/01/15 05:54:54;;;;;;;8.32;4.93;;;-1.00;1.00;;;;;;4919380;29;20119;-72
2021/01/15 05:57:26;;;;;;;7.07;4.78;;;-1.00;1.00;;;;;;4904227;29;20370;-72
2021/01/15 05:59:52;;;;;;;7.10;4.53;;;-1.00;1.00;;;;;;4903716;29;20028;-72
2021/01/15 06:02:18;;;;;;;7.32;4.85;;;-1.10;1.00;;;;;;4891705;29;20049;-71
2021/01/15 06:04:44;;;;;;;5.75;5.15;;;-1.10;1.00;;;;;;4883522;29;20085;-71
2021/01/15 06:07:09;;;;;;;7.10;5.13;;;-1.10;1.00;;;;;;4895377;29;20028;-71
2021/01/15 06:09:40;;;;;;;7.03;5.30;;;-1.30;1.00;;;;;;4896617;29;20027;-72
2021/01/15 06:12:10;;;;;;;6.30;4.93;;;-1.40;1.00;;;;;;4905548;29;20035;-72
2021/01/15 06:17:21;;;;;;;8.70;5.07;;;-1.40;1.00;;;;;;4905435;29;20080;-71
2021/01/15 06:19:58;;;;;;;8.27;5.32;;;-1.40;1.00;;;;;;4904318;29;20453;-70
2021/01/15 06:22:36;;;;;;;8.88;5.13;;;-1.40;1.00;;;;;;4895087;29;20040;-73
2021/01/15 06:25:33;;;;;;;6.53;5.30;;;-1.50;1.00;;;;;;4888600;29;20119;-72
2021/01/15 06:28:04;;;;;;;4.90;4.40;;;-1.50;1.00;;;;;;4900829;29;20073;-71
2021/01/15 06:30:35;;;;;;;8.75;5.55;;;-1.60;1.00;;;;;;4907798;29;20064;-72
2021/01/15 06:33:08;;;;;;;5.90;5.18;;;-1.60;3.70;;;;;;4901333;29;20028;-72
2021/01/15 06:35:35;;;;;;;6.53;5.35;;;-1.50;1.00;;;;;;4906061;29;20437;-73
2021/01/15 06:38:09;;;;;;;10.88;7.35;;;-1.60;1.00;;;;;;4883832;29;20116;-72
2021/01/15 06:40:34;;;;;;;7.03;5.32;;;-1.60;1.00;;;;;;4898344;29;20052;-73
2021/01/15 06:43:07;;;;;;;8.77;6.22;;;-1.60;1.00;;;;;;4918163;29;20025;-72
2021/01/15 06:45:47;;;;;;;7.85;5.60;;;-1.60;1.00;;;;;;4910077;29;20029;-71
2021/01/15 06:48:21;;;;;;;6.23;5.60;;;-1.60;13.40;;;;;;4897597;29;20036;-72
2021/01/15 06:50:49;;;;;;;7.00;5.47;;;-1.70;1.00;;;;;;4902452;29;20021;-71
2021/01/15 06:53:17;;;;;;;7.78;6.28;;;-1.70;1.00;;;;;;4897230;29;20021;-71
2021/01/15 06:55:53;;;;;;;8.70;5.47;;;-1.70;1.00;;;;;;4901264;29;20085;-71
2021/01/15 06:58:29;;;;;;;8.18;5.82;;;-1.70;1.00;;;;;;4900150;29;20031;-71
2021/01/15 07:01:22;;;;;;;5.60;4.95;;;-1.70;1.00;;;;;;4911393;29;20113;-72
2021/01/15 07:03:51;;;;;;;7.72;5.45;;;-1.70;1.00;;;;;;4906096;29;20100;-71
2021/01/15 07:06:26;;;;;;;7.03;5.38;;;-1.70;1.00;;;;;;4910382;29;20039;-72
2021/01/15 07:08:54;;;;;;;7.43;5.55;;;-1.80;1.00;;;;;;4883971;29;20033;-73
2021/01/15 07:11:23;;;;;;;9.05;6.90;;;-1.80;1.00;;;;;;4901366;29;20063;-72
2021/01/15 07:14:06;;;;;;;7.15;5.95;;;-1.80;1.00;;;;;;4908151;29;20463;-72
2021/01/15 07:16:37;;;;;;;8.02;6.65;;;-1.80;1.10;;;;;;4899882;29;20029;-73
2021/01/15 07:19:05;;;;;;;9.32;7.22;;;-1.80;10.60;;;;;;4901659;29;20076;-73
2021/01/15 07:21:36;;;;;;;10.55;6.97;;;-1.60;1.00;;;;;;4903539;29;20499;-72
2021/01/15 07:24:10;;;;;;;10.23;6.97;;;-1.70;1.00;;;;;;4908148;29;20040;-72
2021/01/15 07:26:40;;;;;;;9.38;7.03;;;-1.70;1.00;;;;;;4909887;29;20032;-74
2021/01/15 07:29:14;;;;;;;8.50;6.97;;;-1.80;1.00;;;;;;4923130;29;20043;-73
2021/01/15 07:31:44;;;;;;;10.00;7.70;;;-1.70;1.00;;;;;;4909245;29;20032;-72
2021/01/15 07:34:18;;;;;;;14.23;7.35;;;-1.70;4.20;;;;;;4927213;29;20096;-74
2021/01/15 07:36:44;;;;;;;8.38;7.07;;;-1.70;1.00;;;;;;4908714;29;20116;-73
2021/01/15 07:39:14;;;;;;;7.63;6.38;;;-1.70;1.00;;;;;;4913864;29;20052;-76
2021/01/15 07:41:53;;;;;;;10.45;7.47;;;-1.60;1.00;;;;;;4885364;29;20025;-72
2021/01/15 07:44:22;;;;;;;12.07;7.82;;;-1.40;1.00;;;;;;4900475;29;20041;-75
2021/01/15 07:46:48;;;;;;;11.73;7.35;;;-1.30;1.00;;;;;;4900407;29;20036;-72
2021/01/15 07:49:14;;;;;;;7.97;6.82;;;-1.40;1.00;;;;;;4900193;29;20393;-73
2021/01/15 07:51:40;;;;;;;10.20;7.00;;;-1.40;1.00;;;;;;4883481;29;20028;-72
2021/01/15 07:54:05;;;;;;;11.07;8.27;;;-1.30;1.00;;;;;;4900232;29;20039;-73
2021/01/15 07:56:31;;;;;;;10.63;7.60;;;-1.30;1.00;;;;;;4900147;29;20025;-74
2021/01/15 07:58:57;;;;;;;12.18;7.35;;;-1.40;1.00;;;;;;4899859;29;20108;-73
2021/01/15 08:01:23;;;;;;;11.43;7.45;;;-1.40;1.00;;;;;;4897962;29;20029;-72
2021/01/15 08:03:57;;;;;;;14.52;7.90;;;-1.30;1.00;;;;;;4882546;29;20025;-72
2021/01/15 08:06:25;;;;;;;10.20;7.88;;;-1.30;1.00;;;;;;4900342;29;20039;-73
2021/01/15 08:09:07;;;;;;;13.27;8.38;;;-1.20;1.00;;;;;;4882515;29;20029;-73
2021/01/15 08:11:35;;;;;;;8.70;7.82;;;-1.20;1.00;;;;;;4900017;29;20436;-72
2021/01/15 08:14:17;;;;;;;10.52;8.30;;;-1.00;1.00;;;;;;4899294;29;20487;-74
2021/01/15 08:16:44;;;;;;;7.60;6.82;;;-0.90;1.00;;;;;;4899312;29;20038;-73
2021/01/15 08:19:12;;;;;;;11.05;7.90;;;-0.90;1.00;;;;;;4898502;29;20096;-73
2021/01/15 08:21:39;;;;;;;12.27;8.05;;;-1.00;1.00;;;;;;4882330;29;20481;-72
2021/01/15 08:24:06;;;;;;;11.88;9.02;;;-1.00;1.00;;;;;;4882573;29;20119;-72
2021/01/15 08:26:39;;;;;;;12.38;8.32;;;-0.90;1.00;;;;;;4898283;29;20036;-73
2021/01/15 08:29:06;;;;;;;13.45;7.45;;;-0.90;1.00;;;;;;4897447;29;20029;-73
2021/01/15 08:31:31;;;;;;;12.73;8.52;;;-0.90;1.00;;;;;;4900453;29;20056;-73
2021/01/15 08:34:11;;;;;;;10.07;8.63;;;-0.90;1.00;;;;;;4904403;29;20021;-72
2021/01/15 08:36:40;;;;;;;11.05;8.13;;;-0.90;1.00;;;;;;4900839;29;20048;-73
2021/01/15 08:39:08;;;;;;;13.10;8.57;;;-0.80;1.00;;;;;;4907196;29;20024;-72
2021/01/15 08:41:35;;;;;;;12.95;8.48;;;-0.50;99.90;;;;;;4904298;29;20021;-73
2021/01/15 08:44:01;;;;;;;11.68;8.15;;;-0.50;99.90;;;;;;4898765;29;20036;-73
2021/01/15 08:46:27;;;;;;;9.40;8.02;;;-0.50;1.00;;;;;;4899227;29;20036;-73
2021/01/15 08:48:52;;;;;;;9.32;7.60;;;-0.50;99.90;;;;;;4898757;29;20028;-74
2021/01/15 08:51:21;;;;;;;19.85;10.48;;;-0.40;99.90;;;;;;4899154;29;20031;-73
2021/01/15 08:54:07;;;;;;;13.43;8.73;;;-0.40;99.90;;;;;;4900141;29;20028;-74
2021/01/15 08:56:33;;;;;;;11.50;8.57;;;-0.50;1.00;;;;;;4900696;29;20101;-73
2021/01/15 08:58:59;;;;;;;9.40;7.55;;;-0.40;99.90;;;;;;4900897;29;20084;-74
2021/01/15 09:01:30;;;;;;;13.43;8.73;;;-0.50;1.00;;;;;;4884766;29;20422;-72
2021/01/15 09:04:01;;;;;;;10.55;7.70;;;-0.20;99.90;;;;;;4883789;29;20039;-72
2021/01/15 09:06:28;;;;;;;12.15;8.68;;;-0.10;99.90;;;;;;4911231;29;20025;-73
2021/01/15 09:08:56;;;;;;;10.25;8.27;;;-0.10;99.90;;;;;;4913287;29;20035;-72
2021/01/15 09:11:36;;;;;;;12.40;8.30;;;-0.10;99.90;;;;;;4905709;29;20035;-72
2021/01/15 09:14:05;;;;;;;13.00;9.50;;;0.00;99.90;;;;;;4907910;29;20029;-72
2021/01/15 09:16:32;;;;;;;9.38;8.32;;;0.00;99.90;;;;;;4915176;29;20112;-72
2021/01/15 09:19:10;;;;;;;12.27;8.90;;;0.00;99.90;;;;;;4916842;29;20029;-72
2021/01/15 09:21:47;;;;;;;13.85;8.40;;;0.10;99.90;;;;;;4909329;29;20025;-72
2021/01/15 09:24:13;;;;;;;14.23;10.00;;;0.10;99.90;;;;;;4882659;29;20032;-73
2021/01/15 09:26:39;;;;;;;12.43;8.88;;;0.20;99.90;;;;;;4882120;29;20044;-73
2021/01/15 09:29:05;;;;;;;9.90;8.65;;;0.30;99.90;;;;;;4880132;29;20033;-74
2021/01/15 09:31:30;;;;;;;12.45;9.70;;;0.30;99.90;;;;;;4880718;29;20025;-72
2021/01/15 09:33:56;;;;;;;10.20;8.50;;;0.30;99.90;;;;;;4896432;29;20036;-74
2021/01/15 09:36:27;;;;;;;13.45;9.00;;;0.30;99.90;;;;;;4884855;29;20033;-72
2021/01/15 09:38:58;;;;;;;13.15;10.05;;;0.40;99.90;;;;;;4885028;29;20021;-74
2021/01/15 09:41:24;;;;;;;;;;;0.50;99.90;;;;;;4867486;29;20061;-74
2021/01/15 09:43:53;;;;;;;11.15;9.07;;;0.50;99.90;;;;;;4883588;29;19912;-72
2021/01/15 09:46:29;;;;;;;19.10;9.38;;;0.60;99.90;;;;;;4883553;29;20032;-73
2021/01/15 09:48:57;;;;;;;12.00;9.23;;;0.60;99.90;;;;;;4866234;29;20041;-75
2021/01/15 09:51:24;;;;;;;12.50;9.27;;;0.60;99.90;;;;;;4883046;29;20041;-73
2021/01/15 09:53:51;;;;;;;14.30;10.05;;;0.60;99.90;;;;;;4883395;29;20112;-73
2021/01/15 09:56:30;;;;;;;12.30;9.23;;;0.70;99.90;;;;;;4882599;29;20112;-74
2021/01/15 09:58:57;;;;;;;11.88;9.63;;;0.60;99.90;;;;;;4882917;29;20025;-73
2021/01/15 10:01:24;;;;;;;13.35;9.93;;;0.60;99.90;;;;;;4901979;29;20036;-73
2021/01/15 10:03:51;;;;;;;16.23;11.35;;;0.60;99.90;;;;;;4887158;29;20036;-72
2021/01/15 10:06:18;;;;;;;12.25;9.95;;;0.30;99.90;;;;;;4887195;29;20040;-72
2021/01/15 10:08:44;;;;;;;11.82;9.60;;;0.30;99.90;;;;;;4867007;29;20108;-73
2021/01/15 10:11:25;;;;;;;14.30;10.07;;;0.30;99.90;;;;;;4898030;29;20501;-72
2021/01/15 10:13:59;;;;;;;12.18;9.05;;;0.20;99.90;;;;;;4883620;29;20033;-73
2021/01/15 10:16:25;;;;;;;11.13;9.38;;;0.20;99.90;;;;;;4882663;29;20036;-72
2021/01/15 10:18:52;;;;;;;14.00;9.18;;;0.50;99.90;;;;;;4883114;29;20394;-72
2021/01/15 10:21:22;;;;;;;14.80;10.25;;;0.80;99.90;;;;;;4866277;29;20088;-73
2021/01/15 10:23:48;;;;;;;11.10;8.98;;;0.90;99.90;;;;;;4884605;29;20104;-73
2021/01/15 10:26:27;;;;;;;16.02;10.27;;;1.00;99.90;;;;;;4885389;29;20075;-72
2021/01/15 10:28:57;;;;;;;12.88;9.77;;;0.90;99.90;;;;;;4887208;29;20040;-72
2021/01/15 10:31:27;;;;;;;12.73;9.23;;;0.90;99.90;;;;;;4888197;29;20045;-73
2021/01/15 10:33:54;;;;;;;10.73;9.20;;;1.10;99.90;;;;;;4872082;29;20328;-72
2021/01/15 10:36:21;;;;;;;12.20;9.55;;;1.20;99.90;;;;;;4889598;29;20053;-73
2021/01/15 10:38:47;;;;;;;12.90;10.48;;;1.30;90.90;;;;;;4890483;29;20025;-74
2021/01/15 10:41:13;;;;;;;11.85;10.13;;;1.30;99.90;;;;;;4903600;29;20036;-74
2021/01/15 10:43:39;;;;;;;12.93;9.77;;;1.30;99.90;;;;;;4871734;29;20035;-74
2021/01/15 10:46:05;;;;;;;14.52;10.38;;;1.40;99.90;;;;;;4884223;29;20047;-72
2021/01/15 10:48:31;;;;;;;14.27;10.73;;;1.20;99.90;;;;;;4883401;29;20025;-73
2021/01/15 10:50:57;;;;;;;16.35;12.00;;;1.00;99.90;;;;;;4882155;29;20057;-72
2021/01/15 10:53:23;;;;;;;19.70;10.93;;;1.30;99.90;;;;;;4882828;29;20029;-73
2021/01/15 10:55:49;;;;;;;13.40;10.75;;;1.50;99.90;;;;;;4884733;29;20041;-73
2021/01/15 10:58:16;;;;;;;15.63;11.70;;;1.40;99.90;;;;;;4898736;29;20033;-73
2021/01/15 11:00:41;;;;;;;15.57;12.00;;;1.10;99.90;;;;;;4883200;29;20036;-73
2021/01/15 11:03:07;;;;;;;13.63;11.35;;;0.90;99.90;;;;;;4883438;29;20385;-73
2021/01/15 11:05:33;;;;;;;12.73;10.13;;;0.90;99.90;;;;;;4866127;29;20509;-72
2021/01/15 11:07:59;;;;;;;15.27;12.07;;;1.00;99.90;;;;;;4867960;29;20021;-73
2021/01/15 11:10:25;;;;;;;12.48;11.18;;;1.00;99.90;;;;;;4882420;29;20036;-72
2021/01/15 11:12:50;;;;;;;12.50;10.02;;;1.30;99.90;;;;;;4882667;29;20040;-73
2021/01/15 11:15:16;;;;;;;12.38;9.63;;;1.60;1.00;;;;;;4883938;29;20025;-73
2021/01/15 11:17:42;;;;;;;13.45;10.68;;;1.60;1.00;;;;;;4883551;29;20025;-74
2021/01/15 11:20:08;;;;;;;11.18;9.50;;;1.70;17.30;;;;;;4901246;29;20024;-72
2021/01/15 11:22:37;;;;;;;13.40;11.27;;;1.90;1.00;;;;;;4887142;29;20044;-73
2021/01/15 11:25:04;;;;;;;13.27;10.52;;;2.00;6.90;;;;;;4902297;29;20085;-73
2021/01/15 11:27:31;;;;;;;18.25;11.77;;;1.70;4.20;;;;;;4911763;29;20029;-73
2021/01/15 11:29:57;;;;;;;14.23;10.15;;;1.80;44.00;;;;;;4893046;29;20045;-72
2021/01/15 11:32:23;;;;;;;14.77;11.82;;;1.90;51.60;;;;;;4908364;29;20560;-72
2021/01/15 11:34:49;;;;;;;13.63;11.00;;;2.10;1.00;;;;;;4892946;29;20040;-72
2021/01/15 11:37:17;;;;;;;14.48;10.98;;;1.70;58.20;;;;;;4886821;29;20025;-73
2021/01/15 11:39:43;;;;;;;16.15;11.48;;;1.90;64.00;;;;;;4881383;29;20112;-73
2021/01/15 11:42:09;;;;;;;12.80;10.82;;;1.80;55.00;;;;;;4881096;29;20049;-74
2021/01/15 11:44:34;;;;;;;12.40;11.10;;;1.40;90.30;;;;;;4880704;29;20052;-73
2021/01/15 11:47:00;;;;;;;14.65;11.80;;;1.40;99.90;;;;;;4880437;29;20044;-73
2021/01/15 11:49:26;;;;;;;13.45;11.23;;;1.60;99.90;;;;;;4895131;29;20025;-72
2021/01/15 11:51:55;;;;;;;14.60;11.05;;;1.50;99.90;;;;;;4881326;29;20052;-72
2021/01/15 11:54:21;;;;;;;13.68;11.55;;;1.90;1.00;;;;;;4881073;29;20402;-73
2021/01/15 11:56:47;;;;;;;12.75;11.32;;;1.90;1.00;;;;;;4880210;29;20021;-74
2021/01/15 11:59:13;;;;;;;13.50;11.13;;;1.90;1.00;;;;;;4880739;29;20036;-73
2021/01/15 12:01:38;;;;;;;13.27;10.50;;;1.90;1.00;;;;;;4895532;29;20021;-73
2021/01/15 12:04:04;;;;;;;12.70;9.27;;;1.80;32.60;;;;;;4881070;29;20032;-73
2021/01/15 12:06:30;;;;;;;12.82;8.82;;;1.90;1.00;;;;;;4880868;29;20052;-72
2021/01/15 12:08:56;;;;;;;12.68;9.90;;;2.20;1.00;;;;;;4880797;29;20028;-73
2021/01/15 12:11:21;;;;;;;12.27;9.27;;;2.30;99.90;;;;;;4880901;29;20029;-73
2021/01/15 12:13:47;;;;;;;11.25;8.95;;;2.50;99.90;;;;;;4894906;29;20073;-73
2021/01/15 12:16:13;;;;;;;13.07;9.40;;;2.20;99.90;;;;;;4880876;29;20033;-72
2021/01/15 12:18:40;;;;;;;16.92;10.55;;;1.80;1.00;;;;;;4880577;29;20024;-72
2021/01/15 12:21:05;;;;;;;10.85;9.60;;;1.70;1.00;;;;;;4880613;29;20025;-73
2021/01/15 12:23:31;;;;;;;11.63;9.57;;;1.80;1.00;;;;;;4881185;29;20064;-73
2021/01/15 12:25:57;;;;;;;12.30;9.82;;;2.10;1.00;;;;;;4881172;29;20033;-73
2021/01/15 12:28:22;;;;;;;10.77;9.05;;;2.20;1.00;;;;;;4880729;29;20508;-72
2021/01/15 12:30:51;;;;;;;12.82;9.30;;;2.40;99.90;;;;;;4880570;29;20486;-73
2021/01/15 12:33:18;;;;;;;12.10;8.82;;;2.40;99.90;;;;;;4881275;29;20044;-74
2021/01/15 12:35:45;;;;;;;10.60;9.50;;;2.20;99.90;;;;;;4880254;29;20029;-75
2021/01/15 12:38:12;;;;;;;10.75;8.80;;;2.20;99.90;;;;;;4880188;29;20052;-74
2021/01/15 12:40:38;;;;;;;11.88;8.93;;;2.40;99.90;;;;;;4879728;29;20025;-74
2021/01/15 12:43:12;;;;;;;12.20;8.57;;;2.40;99.90;;;;;;4865593;29;20028;-74
2021/01/15 12:45:40;;;;;;;9.57;7.43;;;2.50;99.90;;;;;;4884549;29;20070;-76
2021/01/15 12:48:06;;;;;;;18.75;8.73;;;2.50;99.90;;;;;;4886359;29;20026;-74
2021/01/15 12:50:32;;;;;;;11.88;8.35;;;2.70;99.90;;;;;;4884770;29;20025;-74
2021/01/15 12:52:58;;;;;;;11.65;8.35;;;2.70;99.90;;;;;;4880813;29;20100;-74
2021/01/15 12:55:25;;;;;;;9.85;6.97;;;2.80;99.90;;;;;;4881067;29;20033;-73
2021/01/15 12:57:52;;;;;;;9.05;7.85;;;2.80;1.00;;;;;;4882859;29;20029;-73
2021/01/15 13:00:18;;;;;;;11.18;9.35;;;2.80;99.90;;;;;;4886016;29;20058;-74
2021/01/15 13:02:44;;;;;;;9.55;8.55;;;2.70;99.90;;;;;;4892786;29;20560;-72
2021/01/15 13:05:10;;;;;;;14.20;8.88;;;2.70;99.90;;;;;;4907983;29;20061;-74
2021/01/15 13:07:36;;;;;;;11.68;9.15;;;2.40;99.90;;;;;;4890783;29;20055;-74